Time;durP1;ratioP1;P1;durP2;ratioP2;P2;SDS_P1;SDS_P2;PMS_P1;PMS_P2;Temp;Humidity;BMP_temperature;BMP_pressure;BME280_temperature;BME280_humidity;BME280_pressure;Samples;Min_cycle;Max_cycle;Signal;HPM_P1;HPM_P2
2021/01/05 00:01:53;;;;;;;11.57;9.47;;;;;;;4.47;70.60;95684.72;5065278;28;20182;-54
2021/01/05 00:04:19;;;;;;;10.47;8.37;;;;;;;4.32;70.86;95684.13;5074652;28;20246;-54
2021/01/05 00:06:44;;;;;;;11.67;9.30;;;;;;;4.25;71.07;95685.16;5075262;28;20173;-53
2021/01/05 00:09:09;;;;;;;13.53;9.50;;;;;;;4.33;71.58;95677.91;5074947;28;20196;-54
2021/01/05 00:11:35;;;;;;;11.17;9.00;;;;;;;4.45;71.24;95676.31;5075582;28;20256;-53
2021/01/05 00:14:00;;;;;;;14.33;9.43;;;;;;;4.50;71.23;95680.88;5075408;28;20177;-54
2021/01/05 00:16:28;;;;;;;12.33;9.07;;;;;;;4.45;70.95;95678.91;5070718;28;20195;-53
2021/01/05 00:18:53;;;;;;;13.17;10.13;;;;;;;4.51;70.64;95677.28;5072598;28;20545;-54
2021/01/05 00:21:19;;;;;;;17.43;12.67;;;;;;;4.53;70.74;95683.09;5063989;28;20432;-53
2021/01/05 00:23:44;;;;;;;15.67;10.20;;;;;;;4.50;70.72;95686.06;5055388;28;20171;-53
2021/01/05 00:26:09;;;;;;;13.90;9.93;;;;;;;4.34;71.79;95689.13;5055532;28;20174;-54
2021/01/05 00:28:35;;;;;;;13.67;10.13;;;;;;;4.17;72.34;95686.16;5058983;28;20168;-54
2021/01/05 00:31:01;;;;;;;13.50;10.13;;;;;;;4.17;72.83;95681.75;5075131;28;20206;-53
2021/01/05 00:33:27;;;;;;;13.30;10.30;;;;;;;4.15;72.76;95691.56;5064378;28;20270;-54
2021/01/05 00:35:52;;;;;;;14.57;10.30;;;;;;;4.19;72.26;95682.38;5054965;28;20536;-53
2021/01/05 00:38:17;;;;;;;14.53;10.87;;;;;;;4.11;72.89;95681.78;5067488;28;20182;-52
2021/01/05 00:40:43;;;;;;;16.27;10.93;;;;;;;4.29;72.12;95688.94;5075001;28;20197;-52
2021/01/05 00:43:08;;;;;;;13.57;10.83;;;;;;;4.24;73.02;95696.56;5075175;28;20185;-54
2021/01/05 00:45:38;;;;;;;20.20;12.00;;;;;;;4.25;72.75;95698.13;5075233;28;20551;-52
2021/01/05 00:48:06;;;;;;;15.77;11.97;;;;;;;4.26;72.96;95697.94;5074660;28;20692;-52
2021/01/05 00:50:31;;;;;;;16.67;12.10;;;;;;;4.06;73.78;95694.56;5074539;28;20425;-53
2021/01/05 00:52:57;;;;;;;17.53;11.90;;;;;;;4.04;73.87;95699.19;5074300;28;20434;-52
2021/01/05 00:55:22;;;;;;;19.00;11.73;;;;;;;4.15;73.35;95698.56;5074239;28;20213;-53
2021/01/05 00:57:48;;;;;;;17.80;12.27;;;;;;;4.12;73.58;95694.56;5074354;28;20177;-52
2021/01/05 01:00:17;;;;;;;15.00;11.77;;;;;;;4.26;73.21;95697.16;5074359;28;20228;-54
2021/01/05 01:02:43;;;;;;;15.37;11.07;;;;;;;4.31;73.00;95705.13;5074840;28;20898;-53
2021/01/05 01:05:09;;;;;;;15.07;11.43;;;;;;;4.17;73.56;95706.94;5074741;28;20413;-54
2021/01/05 01:07:35;;;;;;;16.40;12.33;;;;;;;4.24;73.63;95705.13;5074192;28;20178;-54
2021/01/05 01:10:00;;;;;;;16.77;11.93;;;;;;;4.23;73.34;95698.34;5074197;28;20506;-53
2021/01/05 01:12:25;;;;;;;17.93;12.97;;;;;;;4.28;73.27;95714.13;5074417;28;20424;-53
2021/01/05 01:14:54;;;;;;;18.00;12.40;;;;;;;4.33;73.45;95698.72;5074210;28;20186;-54
2021/01/05 01:17:22;;;;;;;16.17;13.10;;;;;;;4.20;73.57;95696.94;5073671;28;20266;-52
2021/01/05 01:19:47;;;;;;;17.03;11.57;;;;;;;4.28;73.47;95698.53;5074484;28;20440;-53
2021/01/05 01:22:20;;;;;;;18.40;13.47;;;;;;;4.29;73.55;95701.94;5074051;28;20428;-54
2021/01/05 01:24:47;;;;;;;15.60;12.13;;;;;;;4.30;73.71;95699.13;5074574;28;20196;-53
2021/01/05 01:27:12;;;;;;;18.87;13.10;;;;;;;4.33;73.66;95701.31;5073503;28;20915;-52
2021/01/05 01:29:38;;;;;;;14.63;11.67;;;;;;;4.28;73.78;95702.94;5074151;28;20459;-54
2021/01/05 01:32:03;;;;;;;18.60;12.87;;;;;;;4.41;73.47;95703.72;5073993;28;20272;-53
2021/01/05 01:34:29;;;;;;;16.80;12.40;;;;;;;4.33;73.79;95697.94;5074280;28;20177;-54
2021/01/05 01:37:03;;;;;;;19.40;12.97;;;;;;;4.42;74.01;95699.31;5073561;28;20206;-53
2021/01/05 01:39:30;;;;;;;19.00;13.17;;;;;;;4.38;74.40;95693.72;5074141;28;20205;-55
2021/01/05 01:41:58;;;;;;;19.57;13.40;;;;;;;4.41;73.68;95695.09;5074007;28;20502;-53
2021/01/05 01:44:29;;;;;;;19.13;12.30;;;;;;;4.39;74.04;95697.91;5073742;28;20426;-54
2021/01/05 01:47:00;;;;;;;20.70;13.37;;;;;;;4.38;74.05;95693.72;5073646;28;20447;-53
2021/01/05 01:49:26;;;;;;;19.57;14.73;;;;;;;4.46;74.34;95696.09;5074239;28;20432;-54
2021/01/05 01:51:53;;;;;;;17.60;13.47;;;;;;;4.29;75.34;95701.94;5074111;28;20414;-54
2021/01/05 01:54:40;;;;;;;18.60;12.40;;;;;;;4.34;74.82;95708.13;5073910;28;20253;-54
2021/01/05 01:57:39;;;;;;;16.77;12.93;;;;;;;4.27;74.81;95706.53;5073473;28;20506;-53
2021/01/05 02:00:27;;;;;;;19.37;12.53;;;;;;;4.22;75.10;95705.34;5073153;28;20455;-52
2021/01/05 02:03:01;;;;;;;16.90;11.53;;;;;;;4.05;75.69;95705.97;5072810;28;20803;-52
2021/01/05 02:05:47;;;;;;;22.20;14.00;;;;;;;4.16;75.80;95710.56;5073720;28;20925;-54
2021/01/05 02:08:38;;;;;;;17.63;12.93;;;;;;;4.11;75.38;95705.94;5072124;28;20522;-53
2021/01/05 02:11:36;;;;;;;18.57;13.80;;;;;;;4.24;75.12;95712.16;5073351;28;20453;-54
2021/01/05 02:14:32;;;;;;;20.60;14.23;;;;;;;4.22;75.21;95710.53;5053400;28;20407;-54
2021/01/05 02:17:26;;;;;;;20.30;13.50;;;;;;;4.18;75.37;95705.97;5053308;28;20806;-53
2021/01/05 02:19:57;;;;;;;14.37;10.97;;;;;;;4.22;75.65;95701.16;5065094;28;20470;-53
2021/01/05 02:22:42;;;;;;;16.90;12.07;;;;;;;4.22;75.52;95694.94;5073314;28;20835;-53
2021/01/05 02:25:40;;;;;;;17.33;12.67;;;;;;;4.37;75.12;95699.09;5073728;28;20491;-54
2021/01/05 02:28:09;;;;;;;16.03;10.90;;;;;;;4.41;74.50;95701.13;5041939;28;20416;-53
2021/01/05 02:30:41;;;;;;;18.53;12.50;;;;;;;4.48;74.67;95691.50;5073198;28;20450;-54
2021/01/05 02:33:27;;;;;;;13.43;10.63;;;;;;;4.56;74.31;95686.06;5073651;28;20519;-52
2021/01/05 02:36:11;;;;;;;17.67;12.87;;;;;;;4.57;73.98;95686.84;5072386;28;20449;-53
2021/01/05 02:38:57;;;;;;;16.03;11.40;;;;;;;4.61;73.07;95683.66;5073179;28;20417;-52
2021/01/05 02:42:05;;;;;;;15.10;11.43;;;;;;;4.61;73.26;95694.06;5073381;28;20421;-54
2021/01/05 02:44:48;;;;;;;15.70;10.73;;;;;;;4.57;73.29;95687.66;5072832;28;20939;-53
2021/01/05 02:47:45;;;;;;;13.87;11.40;;;;;;;4.49;73.47;95680.09;5054900;28;20443;-53
2021/01/05 02:50:32;;;;;;;16.80;11.73;;;;;;;4.60;72.95;95679.44;5072952;28;20435;-52
2021/01/05 02:53:30;;;;;;;14.80;10.90;;;;;;;4.61;72.59;95677.66;5073222;28;20419;-54
2021/01/05 02:56:04;;;;;;;14.47;10.13;;;;;;;4.68;73.36;95675.81;5067634;28;20475;-53
2021/01/05 02:58:56;;;;;;;18.70;11.23;;;;;;;4.69;72.49;95673.00;5072897;28;20420;-52
2021/01/05 03:01:49;;;;;;;16.00;10.50;;;;;;;4.73;72.52;95676.78;5041471;28;20460;-54
2021/01/05 03:04:14;;;;;;;15.00;11.10;;;;;;;4.81;72.30;95673.97;5073040;28;20432;-53
2021/01/05 03:06:47;;;;;;;16.93;12.00;;;;;;;4.83;72.06;95677.16;5072689;28;20415;-54
2021/01/05 03:09:13;;;;;;;15.33;11.73;;;;;;;4.80;72.19;95667.16;5073123;28;20177;-54
2021/01/05 03:12:02;;;;;;;18.67;12.73;;;;;;;4.76;72.50;95671.19;5073002;28;20443;-52
2021/01/05 03:14:43;;;;;;;17.50;12.53;;;;;;;4.68;72.84;95666.22;5074397;28;20199;-54
2021/01/05 03:17:26;;;;;;;17.63;12.03;;;;;;;4.71;73.40;95672.81;5075985;28;20432;-53
2021/01/05 03:20:10;;;;;;;19.23;13.13;;;;;;;4.68;72.82;95676.63;5077043;28;20447;-53
2021/01/05 03:22:38;;;;;;;17.20;12.47;;;;;;;4.79;72.58;95675.19;5076821;28;20400;-54
2021/01/05 03:25:06;;;;;;;19.50;13.40;;;;;;;4.78;72.60;95669.16;5077003;28;20416;-53
2021/01/05 03:27:33;;;;;;;19.70;13.07;;;;;;;4.84;72.72;95675.34;5076614;28;20420;-52
2021/01/05 03:30:12;;;;;;;23.77;14.63;;;;;;;4.80;72.46;95680.16;5076259;28;20450;-53
2021/01/05 03:32:38;;;;;;;18.73;13.63;;;;;;;4.75;73.71;95679.19;5076357;28;20448;-54
2021/01/05 03:35:05;;;;;;;17.07;12.00;;;;;;;4.76;73.09;95683.41;5076705;28;20543;-54
2021/01/05 03:37:30;;;;;;;21.80;14.10;;;;;;;4.81;73.66;95681.78;5075969;28;20942;-54
2021/01/05 03:39:55;;;;;;;21.63;14.60;;;;;;;4.79;73.01;95682.97;5076653;28;20477;-52
2021/01/05 03:42:21;;;;;;;20.97;12.83;;;;;;;4.85;73.07;95684.78;5076789;28;20507;-52
2021/01/05 03:44:46;;;;;;;19.97;14.30;;;;;;;4.73;72.89;95676.78;5076018;28;20194;-52
2021/01/05 03:47:12;;;;;;;22.73;15.20;;;;;;;4.76;73.43;95680.81;5075800;28;20198;-52
2021/01/05 03:49:37;;;;;;;24.43;15.70;;;;;;;4.82;73.02;95680.75;5076369;28;20201;-54
2021/01/05 03:52:03;;;;;;;27.60;17.07;;;;;;;4.83;73.00;95681.56;5076494;28;20182;-55
2021/01/05 03:54:28;;;;;;;22.80;15.53;;;;;;;4.77;73.45;95678.00;5058486;28;20770;-54
2021/01/05 03:56:53;;;;;;;24.83;15.20;;;;;;;4.86;73.22;95689.75;5075795;28;20201;-54
2021/01/05 03:59:19;;;;;;;25.33;17.90;;;;;;;4.84;73.67;95683.16;5075956;28;20228;-53
2021/01/05 04:01:54;;;;;;;27.60;17.90;;;;;;;4.86;74.07;95683.75;5075810;28;20182;-54
2021/01/05 04:04:20;;;;;;;24.47;16.63;;;;;;;4.84;74.48;95680.56;5076235;28;20177;-54
2021/01/05 04:06:46;;;;;;;25.80;17.10;;;;;;;4.82;74.60;95685.19;5075833;28;20414;-53
2021/01/05 04:09:12;;;;;;;28.23;17.13;;;;;;;4.89;74.20;95681.53;5075727;28;20502;-53
2021/01/05 04:11:37;;;;;;;26.70;17.10;;;;;;;4.90;74.01;95677.13;5075768;28;20515;-53
2021/01/05 04:14:03;;;;;;;28.13;18.07;;;;;;;4.96;74.10;95681.53;5076021;28;20170;-53
2021/01/05 04:16:31;;;;;;;25.87;16.47;;;;;;;5.00;74.25;95693.13;5075066;28;20463;-54
2021/01/05 04:18:57;;;;;;;26.20;16.53;;;;;;;5.01;74.08;95692.09;5075927;28;20186;-52
2021/01/05 04:21:22;;;;;;;24.97;17.00;;;;;;;5.04;73.80;95684.66;5075375;28;20436;-54
2021/01/05 04:23:47;;;;;;;25.20;15.27;;;;;;;4.97;74.00;95683.91;5075861;28;20659;-54
2021/01/05 04:26:13;;;;;;;27.23;16.30;;;;;;;4.97;74.21;95681.31;5074626;28;20192;-52
2021/01/05 04:28:38;;;;;;;23.83;16.13;;;;;;;4.95;74.28;95679.91;5075368;28;20211;-52
2021/01/05 04:31:03;;;;;;;27.30;16.90;;;;;;;4.97;74.11;95681.31;5075328;28;20308;-52
2021/01/05 04:33:29;;;;;;;23.17;16.67;;;;;;;4.99;74.39;95668.88;5075515;28;20201;-53
2021/01/05 04:35:54;;;;;;;27.90;17.10;;;;;;;4.97;74.31;95677.91;5075332;28;20205;-54
2021/01/05 04:38:19;;;;;;;27.80;17.60;;;;;;;4.93;75.08;95685.31;5075327;28;20176;-53
2021/01/05 04:40:47;;;;;;;30.23;17.10;;;;;;;4.95;74.89;95678.09;5075372;28;20263;-53
2021/01/05 04:43:31;;;;;;;26.60;16.13;;;;;;;4.95;74.38;95682.50;5075456;28;20755;-54
2021/01/05 04:46:08;;;;;;;23.37;16.13;;;;;;;4.97;74.64;95683.09;5075422;28;20415;-53
2021/01/05 04:48:55;;;;;;;24.03;16.53;;;;;;;4.98;73.98;95687.31;5075023;28;20415;-54
2021/01/05 04:51:26;;;;;;;26.03;15.90;;;;;;;4.98;74.13;95690.69;5055219;28;20440;-54
2021/01/05 04:54:03;;;;;;;26.87;17.17;;;;;;;4.91;74.10;95695.13;5056258;28;20812;-54
2021/01/05 04:57:05;;;;;;;28.50;16.87;;;;;;;4.97;74.45;95698.72;5054877;28;20502;-54
2021/01/05 04:59:48;;;;;;;26.63;16.73;;;;;;;4.93;74.80;95697.53;5054995;28;20432;-53
2021/01/05 05:02:16;;;;;;;25.87;18.00;;;;;;;4.91;75.43;95694.34;5055322;28;20413;-54
2021/01/05 05:04:50;;;;;;;28.10;18.70;;;;;;;4.98;74.69;95701.09;5064702;28;20463;-54
2021/01/05 05:07:31;;;;;;;27.83;19.00;;;;;;;4.96;75.25;95710.16;5073916;28;20435;-53
2021/01/05 05:10:02;;;;;;;26.70;16.90;;;;;;;5.01;75.47;95705.13;5054777;28;20996;-54
2021/01/05 05:12:45;;;;;;;27.03;17.50;;;;;;;5.00;75.23;95708.75;5054977;28;20517;-54
2021/01/05 05:15:36;;;;;;;29.20;18.27;;;;;;;5.03;75.33;95706.50;5067941;28;20454;-53
2021/01/05 05:18:26;;;;;;;25.70;18.00;;;;;;;5.02;75.65;95711.91;5074584;28;20444;-54
2021/01/05 05:21:28;;;;;;;23.10;17.10;;;;;;;5.02;76.47;95707.50;5074424;28;20457;-55
2021/01/05 05:24:15;;;;;;;25.90;18.00;;;;;;;5.10;75.93;95709.06;5074200;28;20980;-53
2021/01/05 05:26:51;;;;;;;29.63;17.53;;;;;;;5.11;75.94;95705.44;5074187;28;20413;-55
2021/01/05 05:29:35;;;;;;;28.40;18.50;;;;;;;5.04;75.92;95715.09;5074337;28;20411;-56
2021/01/05 05:32:03;;;;;;;26.97;16.60;;;;;;;5.05;75.94;95717.50;5074496;28;20450;-53
2021/01/05 05:34:58;;;;;;;26.03;17.03;;;;;;;5.00;76.23;95714.72;5074048;28;20500;-54
2021/01/05 05:37:40;;;;;;;26.13;17.97;;;;;;;4.84;76.68;95712.59;5073850;28;20900;-52
2021/01/05 05:40:18;;;;;;;27.37;17.87;;;;;;;4.61;77.47;95714.88;5074260;28;20436;-53
2021/01/05 05:43:09;;;;;;;28.20;18.40;;;;;;;4.39;79.23;95728.31;5074243;28;20801;-54
2021/01/05 05:45:45;;;;;;;28.30;18.10;;;;;;;4.64;78.35;95730.06;5074589;28;20806;-54
2021/01/05 05:48:27;;;;;;;27.20;16.80;;;;;;;4.68;77.45;95733.84;5073661;28;20413;-52
2021/01/05 05:51:25;;;;;;;22.80;17.20;;;;;;;4.73;78.04;95726.22;5072648;28;20447;-53
2021/01/05 05:54:00;;;;;;;26.00;16.70;;;;;;;4.79;77.83;95732.41;5061717;28;20427;-53
2021/01/05 05:56:55;;;;;;;25.53;17.10;;;;;;;4.67;78.02;95728.88;5073695;28;20487;-53
2021/01/05 05:59:30;;;;;;;25.70;17.70;;;;;;;4.57;78.72;95739.69;5073869;28;20426;-54
2021/01/05 06:01:56;;;;;;;30.07;18.83;;;;;;;4.64;77.97;95742.28;5073908;28;20409;-53
2021/01/05 06:04:22;;;;;;;25.40;18.00;;;;;;;4.69;79.07;95750.28;5073248;28;20799;-53
2021/01/05 06:06:48;;;;;;;29.80;18.30;;;;;;;4.60;78.28;95739.25;5073151;28;20175;-53
2021/01/05 06:09:13;;;;;;;31.20;17.60;;;;;;;4.56;79.18;95745.91;5073547;28;20416;-54
2021/01/05 06:11:38;;;;;;;29.07;18.77;;;;;;;4.70;78.69;95751.84;5073903;28;20465;-52
2021/01/05 06:14:05;;;;;;;32.67;19.40;;;;;;;4.78;78.19;95757.63;5073467;28;20633;-52
2021/01/05 06:16:32;;;;;;;28.50;17.53;;;;;;;4.71;78.32;95758.69;5073356;28;20250;-54
2021/01/05 06:18:57;;;;;;;28.80;18.10;;;;;;;4.73;79.10;95759.28;5073055;28;20470;-54
2021/01/05 06:21:23;;;;;;;29.90;18.30;;;;;;;4.79;78.31;95763.63;5073617;28;20514;-53
2021/01/05 06:23:48;;;;;;;30.93;19.10;;;;;;;4.75;78.61;95768.44;5073205;28;20182;-52
2021/01/05 06:26:18;;;;;;;30.80;19.10;;;;;;;4.84;79.04;95767.22;5072972;28;20688;-52
2021/01/05 06:28:44;;;;;;;30.73;17.47;;;;;;;4.77;78.92;95770.84;5073136;28;20185;-54
2021/01/05 06:31:10;;;;;;;27.47;17.10;;;;;;;4.79;78.64;95766.25;5072990;28;20452;-52
2021/01/05 06:33:35;;;;;;;26.67;16.73;;;;;;;4.88;78.06;95771.03;5073021;28;20472;-53
2021/01/05 06:36:00;;;;;;;23.03;17.37;;;;;;;4.88;78.45;95765.00;5073137;28;20477;-53
2021/01/05 06:38:26;;;;;;;28.57;18.67;;;;;;;4.75;78.75;95762.44;5072894;28;20215;-52
2021/01/05 06:40:52;;;;;;;26.53;17.50;;;;;;;4.56;79.27;95764.09;5073480;28;20223;-54
2021/01/05 06:43:17;;;;;;;30.63;17.53;;;;;;;4.56;79.77;95765.91;5073160;28;20248;-52
2021/01/05 06:45:43;;;;;;;28.57;18.87;;;;;;;4.62;80.18;95770.31;5073527;28;20233;-52
2021/01/05 06:48:09;;;;;;;31.97;19.50;;;;;;;4.67;78.90;95766.09;5072330;28;20459;-54
2021/01/05 06:50:34;;;;;;;27.33;18.70;;;;;;;4.54;80.22;95765.31;5072858;28;20624;-53
2021/01/05 06:52:59;;;;;;;32.10;18.97;;;;;;;4.59;79.63;95770.69;5073363;28;20576;-53
2021/01/05 06:55:25;;;;;;;29.97;18.83;;;;;;;4.66;79.27;95777.47;5073054;28;20664;-54
2021/01/05 06:57:51;;;;;;;26.67;17.73;;;;;;;4.69;79.80;95774.47;5072828;28;20216;-53
2021/01/05 07:00:27;;;;;;;27.67;18.87;;;;;;;4.70;79.19;95770.06;5072832;28;20193;-54
2021/01/05 07:02:54;;;;;;;28.60;17.60;;;;;;;4.72;79.57;95770.66;5073328;28;20420;-54
2021/01/05 07:05:21;;;;;;;29.07;17.53;;;;;;;4.80;80.11;95779.03;5073248;28;20412;-54
2021/01/05 07:07:47;;;;;;;28.77;18.47;;;;;;;4.87;80.28;95777.22;5072664;28;20507;-54
2021/01/05 07:10:16;;;;;;;28.27;18.13;;;;;;;4.90;79.80;95770.81;5072185;28;20436;-54
2021/01/05 07:12:42;;;;;;;27.17;17.37;;;;;;;4.83;79.62;95775.25;5073235;28;20455;-52
2021/01/05 07:15:10;;;;;;;27.70;18.60;;;;;;;4.86;80.42;95770.44;5072826;28;20456;-54
2021/01/05 07:17:35;;;;;;;27.50;18.53;;;;;;;4.93;80.22;95773.00;5072277;28;20424;-52
2021/01/05 07:20:06;;;;;;;31.50;19.70;;;;;;;4.95;79.98;95771.81;5072958;28;20447;-54
2021/01/05 07:22:32;;;;;;;28.43;18.43;;;;;;;4.96;79.10;95776.00;5073141;28;20174;-54
2021/01/05 07:24:57;;;;;;;30.97;20.13;;;;;;;4.97;79.80;95775.00;5072559;28;20424;-54
2021/01/05 07:27:23;;;;;;;29.70;18.23;;;;;;;4.89;79.20;95779.66;5072108;28;20188;-51
2021/01/05 07:29:48;;;;;;;31.00;19.57;;;;;;;4.87;79.91;95773.84;5072721;28;20214;-53
2021/01/05 07:32:14;;;;;;;29.93;18.27;;;;;;;4.79;80.26;95782.66;5072938;28;20262;-54
2021/01/05 07:34:39;;;;;;;36.83;19.23;;;;;;;4.73;80.97;95787.88;5072891;28;20181;-54
2021/01/05 07:37:13;;;;;;;30.80;17.60;;;;;;;4.76;80.74;95780.47;5072545;28;20238;-55
2021/01/05 07:39:39;;;;;;;25.83;18.83;;;;;;;4.85;79.68;95783.66;5072378;28;20214;-52
2021/01/05 07:42:15;;;;;;;32.73;18.40;;;;;;;4.80;80.94;95789.44;5072477;28;20419;-51
2021/01/05 07:44:41;;;;;;;30.23;19.40;;;;;;;4.82;81.13;95791.88;5054355;28;20411;-53
2021/01/05 07:47:08;;;;;;;36.00;18.80;;;;;;;4.81;80.94;95788.47;5072373;28;20820;-52
2021/01/05 07:49:34;;;;;;;34.90;20.83;;;;;;;4.86;80.95;95793.03;5072718;28;20435;-54
2021/01/05 07:51:59;;;;;;;29.93;19.27;;;;;;;4.90;81.51;95789.84;5072667;28;20496;-53
2021/01/05 07:54:24;;;;;;;31.10;19.70;;;;;;;5.00;81.04;95789.41;5072656;28;20761;-54
2021/01/05 07:56:50;;;;;;;26.33;17.47;;;;;;;5.01;80.50;95788.41;5071907;28;20198;-52
2021/01/05 07:59:18;;;;;;;24.87;17.47;;;;;;;5.02;79.97;95788.19;5072360;28;20204;-54
2021/01/05 08:01:44;;;;;;;27.87;17.83;;;;;;;4.94;80.33;95788.44;5073916;28;20203;-54
2021/01/05 08:04:09;;;;;;;24.80;17.60;;;;;;;4.92;80.55;95784.44;5076264;28;20949;-52
2021/01/05 08:06:39;;;;;;;24.57;16.70;;;;;;;5.02;80.58;95790.00;5075458;28;20241;-54
2021/01/05 08:09:04;;;;;;;25.47;18.07;;;;;;;4.96;80.83;95789.00;5076081;28;20184;-53
2021/01/05 08:11:38;;;;;;;25.30;17.50;;;;;;;4.97;80.27;95795.81;5075457;28;20422;-54
2021/01/05 08:14:05;;;;;;;24.83;16.70;;;;;;;5.02;80.84;95790.00;5076114;28;20181;-53
2021/01/05 08:16:30;;;;;;;23.10;16.10;;;;;;;4.82;81.48;95794.47;5075588;28;20481;-55
2021/01/05 08:18:56;;;;;;;21.43;16.60;;;;;;;4.99;80.73;95795.63;5076020;28;20424;-54
2021/01/05 08:21:25;;;;;;;23.47;15.67;;;;;;;5.04;81.07;95796.59;5075065;28;20193;-54
2021/01/05 08:23:51;;;;;;;25.30;16.00;;;;;;;5.08;80.18;95792.59;5075960;28;20585;-52
2021/01/05 08:26:17;;;;;;;23.60;15.90;;;;;;;5.03;80.74;95787.22;5075591;28;20436;-54
2021/01/05 08:28:42;;;;;;;23.93;16.80;;;;;;;5.09;80.02;95785.59;5075742;28;20210;-54
2021/01/05 08:31:08;;;;;;;24.03;15.20;;;;;;;5.09;79.61;95785.59;5075358;28;20212;-54
2021/01/05 08:33:33;;;;;;;18.70;13.40;;;;;;;5.05;80.85;95789.59;5076166;28;20201;-52
2021/01/05 08:35:58;;;;;;;23.33;16.10;;;;;;;5.10;81.01;95787.97;5075237;28;20226;-53
2021/01/05 08:38:24;;;;;;;22.97;14.77;;;;;;;5.12;80.79;95788.56;5074973;28;20250;-54
2021/01/05 08:40:49;;;;;;;23.10;14.17;;;;;;;5.12;81.11;95785.16;5060554;28;20195;-53
2021/01/05 08:43:15;;;;;;;21.13;15.30;;;;;;;5.18;80.20;95792.16;5062824;28;20178;-54
2021/01/05 08:45:41;;;;;;;18.67;13.57;;;;;;;5.20;80.17;95787.53;5075580;28;20628;-54
2021/01/05 08:48:07;;;;;;;20.30;13.60;;;;;;;5.14;80.70;95783.97;5074854;28;20189;-52
2021/01/05 08:50:34;;;;;;;19.13;13.97;;;;;;;5.10;81.17;95780.16;5074951;28;20493;-54
2021/01/05 08:53:01;;;;;;;18.10;13.27;;;;;;;5.12;80.63;95780.78;5074784;28;20466;-54
2021/01/05 08:55:27;;;;;;;18.47;13.40;;;;;;;5.19;80.41;95785.94;5075372;28;20447;-54
2021/01/05 08:57:53;;;;;;;17.77;12.90;;;;;;;5.25;80.18;95785.13;5074696;28;20949;-53
2021/01/05 09:00:19;;;;;;;19.43;14.13;;;;;;;5.32;79.48;95787.69;5074983;28;20437;-54
2021/01/05 09:02:44;;;;;;;18.07;13.33;;;;;;;5.37;80.12;95786.06;5074783;28;20185;-53
2021/01/05 09:05:11;;;;;;;17.87;12.83;;;;;;;5.29;79.37;95793.31;5075242;28;20409;-52
2021/01/05 09:07:36;;;;;;;17.30;12.63;;;;;;;5.34;80.25;95785.69;5074366;28;20181;-54
2021/01/05 09:10:03;;;;;;;17.40;13.17;;;;;;;5.17;79.49;95788.75;5074360;28;20590;-52
2021/01/05 09:12:33;;;;;;;18.60;12.27;;;;;;;5.20;80.63;95790.13;5074407;28;20187;-53
2021/01/05 09:14:59;;;;;;;15.60;12.10;;;;;;;5.27;79.92;95795.31;5074235;28;20921;-55
2021/01/05 09:17:25;;;;;;;16.10;12.93;;;;;;;5.34;80.13;95785.69;5073806;28;20427;-54
2021/01/05 09:19:50;;;;;;;18.97;13.10;;;;;;;5.33;79.80;95784.88;5074343;28;20237;-54
2021/01/05 09:22:20;;;;;;;18.57;13.33;;;;;;;5.39;79.54;95791.06;5074024;28;20644;-54
2021/01/05 09:24:45;;;;;;;15.97;11.83;;;;;;;5.35;79.27;95792.47;5074706;28;20695;-54
2021/01/05 09:27:11;;;;;;;18.87;13.20;;;;;;;5.37;79.68;95793.88;5074004;28;20488;-54
2021/01/05 09:29:36;;;;;;;16.23;12.63;;;;;;;5.44;79.25;95793.84;5073768;28;20227;-54
2021/01/05 09:32:02;;;;;;;18.10;13.43;;;;;;;5.45;79.07;95793.66;5074822;28;20261;-54
2021/01/05 09:34:27;;;;;;;20.50;12.70;;;;;;;5.49;79.27;95800.03;5074420;28;20202;-54
2021/01/05 09:36:52;;;;;;;16.30;12.97;;;;;;;5.43;78.96;95797.47;5073694;28;20201;-53
2021/01/05 09:39:21;;;;;;;18.40;12.80;;;;;;;5.40;79.54;95798.66;5074300;28;20304;-54
2021/01/05 09:42:06;;;;;;;20.80;14.40;;;;;;;5.42;79.66;95791.44;5074264;28;20230;-54
2021/01/05 09:44:32;;;;;;;20.37;14.33;;;;;;;5.45;80.04;95800.66;5069027;28;20440;-53
2021/01/05 09:47:01;;;;;;;21.97;14.37;;;;;;;5.47;79.44;95802.03;5070326;28;20413;-54
2021/01/05 09:49:28;;;;;;;18.20;13.40;;;;;;;5.50;79.76;95799.03;5070217;28;20202;-53
2021/01/05 09:51:59;;;;;;;20.20;14.03;;;;;;;5.43;79.74;95808.69;5070707;28;20401;-53
2021/01/05 09:54:24;;;;;;;19.70;12.87;;;;;;;5.47;80.22;95803.84;5068322;28;20420;-52
2021/01/05 09:56:52;;;;;;;20.50;15.50;;;;;;;5.49;80.18;95807.84;5062548;28;20599;-52
2021/01/05 09:59:18;;;;;;;22.60;14.23;;;;;;;5.51;79.97;95803.22;5070260;28;20185;-53
2021/01/05 10:01:43;;;;;;;17.37;14.50;;;;;;;5.51;79.72;95815.47;5070424;28;21054;-53
2021/01/05 10:04:09;;;;;;;21.43;14.90;;;;;;;5.38;79.59;95805.09;5070318;28;20442;-52
2021/01/05 10:06:34;;;;;;;18.57;14.07;;;;;;;5.37;80.68;95804.28;5069224;28;20172;-54
2021/01/05 10:09:07;;;;;;;18.50;13.23;;;;;;;5.41;79.73;95796.88;5069858;28;20196;-54
2021/01/05 10:11:34;;;;;;;19.70;14.67;;;;;;;5.49;80.30;95800.03;5069606;28;20178;-53
2021/01/05 10:14:00;;;;;;;20.80;14.33;;;;;;;5.55;79.69;95798.41;5070189;28;20474;-54
2021/01/05 10:16:25;;;;;;;19.00;14.40;;;;;;;5.59;79.34;95799.56;5069653;28;20460;-54
2021/01/05 10:18:51;;;;;;;22.50;16.10;;;;;;;5.56;79.51;95803.38;5069058;28;20192;-61
2021/01/05 10:21:16;;;;;;;22.37;15.70;;;;;;;5.57;79.22;95797.19;5070050;28;20490;-62
2021/01/05 10:23:42;;;;;;;22.10;16.27;;;;;;;5.61;79.70;95797.56;5069042;28;20288;-58
2021/01/05 10:26:09;;;;;;;23.03;15.57;;;;;;;5.63;79.06;95790.34;5069839;28;20170;-60
2021/01/05 10:28:35;;;;;;;20.10;14.80;;;;;;;5.59;79.82;95787.38;5069144;28;20509;-62
2021/01/05 10:31:00;;;;;;;21.47;14.67;;;;;;;5.49;80.15;95788.81;5069308;28;20440;-64
2021/01/05 10:33:27;;;;;;;19.10;14.60;;;;;;;5.47;80.61;95786.41;5067919;28;20821;-66
2021/01/05 10:35:53;;;;;;;18.13;14.90;;;;;;;5.58;80.09;95787.56;5069390;28;20203;-62
2021/01/05 10:38:19;;;;;;;22.00;15.07;;;;;;;5.53;80.41;95790.78;5069448;28;20426;-57
2021/01/05 10:40:45;;;;;;;31.80;15.67;;;;;;;5.56;79.63;95786.97;5069438;28;20197;-63
2021/01/05 10:43:10;;;;;;;25.50;15.70;;;;;;;5.56;79.49;95782.53;5069426;28;20458;-62
2021/01/05 10:45:35;;;;;;;22.43;15.57;;;;;;;5.61;79.54;95771.50;5069987;28;20167;-61
2021/01/05 10:48:01;;;;;;;24.93;15.70;;;;;;;5.62;79.59;95768.69;5067850;28;20186;-64
2021/01/05 10:50:26;;;;;;;23.17;16.30;;;;;;;5.66;79.31;95763.88;5069446;28;20201;-72
2021/01/05 10:52:52;;;;;;;22.73;15.67;;;;;;;5.69;79.13;95766.84;5069343;28;20178;-68
2021/01/05 10:55:20;;;;;;;23.07;16.30;;;;;;;5.72;79.61;95765.63;5069423;28;20200;-68
2021/01/05 10:57:47;;;;;;;29.50;22.70;;;;;;;5.67;79.40;95750.63;5069550;28;20180;-66
2021/01/05 11:00:15;;;;;;;24.53;17.37;;;;;;;5.72;80.14;95752.59;5069309;28;20448;-66
2021/01/05 11:02:41;;;;;;;20.63;15.43;;;;;;;5.73;79.39;95756.81;5067486;28;20440;-67
2021/01/05 11:05:07;;;;;;;24.33;16.40;;;;;;;5.80;79.13;95757.56;5069783;28;20436;-67
2021/01/05 11:07:32;;;;;;;21.73;15.00;;;;;;;5.74;79.04;95759.19;5069709;28;20189;-70
2021/01/05 11:09:58;;;;;;;22.53;16.70;;;;;;;5.80;79.40;95755.75;5069346;28;20440;-60
2021/01/05 11:12:27;;;;;;;24.93;15.93;;;;;;;5.76;79.31;95756.41;5067612;28;20193;-65
2021/01/05 11:14:53;;;;;;;21.17;14.40;;;;;;;5.69;78.84;95753.03;5068658;28;20494;-68
2021/01/05 11:17:18;;;;;;;20.70;14.07;;;;;;;5.68;79.17;95744.41;5067433;28;20475;-63
2021/01/05 11:19:45;;;;;;;23.23;14.40;;;;;;;5.73;79.65;95746.38;5068437;28;20232;-69
2021/01/05 11:22:15;;;;;;;30.40;15.97;;;;;;;5.78;79.36;95744.75;5069789;28;20163;-64
2021/01/05 11:24:41;;;;;;;33.23;14.50;;;;;;;5.78;78.75;95744.75;5068768;28;20456;-67
2021/01/05 11:27:07;;;;;;;31.87;14.83;;;;;;;5.66;80.11;95741.22;5068814;28;20427;-74
2021/01/05 11:29:34;;;;;;;32.47;15.10;;;;;;;5.63;79.65;95740.84;5069276;28;20480;-66
2021/01/05 11:32:11;;;;;;;38.80;14.10;;;;;;;5.50;80.64;95739.13;5067420;28;20531;-74
2021/01/05 11:34:38;;;;;;;30.00;15.30;;;;;;;5.61;80.47;95741.06;5067094;28;20455;-68
2021/01/05 11:37:06;;;;;;;27.87;15.27;;;;;;;5.69;79.87;95738.19;5054826;28;20601;-67
2021/01/05 11:39:31;;;;;;;30.70;14.90;;;;;;;5.72;79.94;95739.56;5072342;28;20516;-62